Terminal Aerodrome Forecast
Issued by NWS

Home | Current Version | Previous Version | Text Only | Print | Product List | Glossary On
Versions: 1 2 3 4 5 6 7 8 9 10 11 12 13 14 15 16 17 18 19 20 21 22 23 24 25 26 27
000
FTAK31 PAFA 201134
TAFAFA
TAF
PAFA 201134Z 2012/2118 VRB03KT P6SM -RA BKN025 BKN060 OVC080
     FM201600 03004KT P6SM VCSH SCT020 BKN050
     FM202200 06005KT P6SM VCTS SCT035 SCT050CB BKN100
     FM210600 VRB03KT P6SM SCT050 BKN100
     FM211300 VRB03KT P6SM BCFG FEW004 SCT050 BKN100=

USA.gov is the U.S. government's official web portal to all federal, state and local government web resources and services.